Terminal Aerodrome Forecast
Issued by NWS

Home | Current Version | Previous Version | Text Only | Print | Product List | Glossary On
Versions: 1 2 3 4 5 6 7 8 9 10 11 12
823
FTUS45 KTFX 202335
TAFLWT
TAF
KLWT 202335Z 2100/2124 29020G30KT P6SM VCSH SCT030 BKN080
      TEMPO 2100/2102 -SHRA SCT015 BKN030
     FM211400 27015G25KT P6SM SCT050=

USA.gov is the U.S. government's official web portal to all federal, state and local government web resources and services.